Alexandria, Nebraska
Current Conditions -  °F | °C
As of 12:35 AM on Wednesday 26 Nov 2014 (Local Time) from KHJH Reporting Station
Broken Clouds Broken Clouds  
Wind Chill: 37°   Ceiling: 10000
Heat Index: 43°   Visibility: 10mi
Dew Point: 30°   Wind: 12mph
Humidity: 60%   Direction: 310°NW
Pressure: 29.91"   Gusts: NA
Location:  40.25°N, 97.39°W
Report Text: KHJH 260635Z AUTO 31010KT 10SM SCT049 BKN100 06/M01 A2991 RMK AO2 T00601012
Loading
Personal Weather Stations






























Interactive Weather Map New forecast layout! Learn more

10-Day Weather Forecast

Advertisements
Track Severe Weather on mobile